T10 EFTU-EFTU

Flight info

Callsign T10
Flight time N/A
Altitude 5000
Route JUTKI AHVENANMAA JUTKI
Aircraft PC12/L-SDFGRY/H

Departure

Time 2026-04-27 16:29
Airport Turku Airport (EFTU)

Arrival

Time N/A
Airport Turku Airport (EFTU)
Time Latitude Longitude Altitude Speed Heading
2026-04-27 16:24 60.51238 22.26625 150 ft 0 kts 115°
2026-04-27 16:27 60.51237 22.26627 150 ft 3 kts 108°
2026-04-27 16:27 60.51368 22.27046 145 ft 10 kts 355°
2026-04-27 16:28 60.51426 22.26518 143 ft 58 kts 273°
2026-04-27 16:28 60.51295 22.24000 415 ft 112 kts 272°
2026-04-27 16:29 60.48919 22.20645 1394 ft 184 kts 177°
2026-04-27 16:30 60.46193 22.20707 1938 ft 210 kts 209°
2026-04-27 16:30 60.43619 22.17703 2642 ft 219 kts 216°
2026-04-27 16:31 60.39228 22.13508 3293 ft 247 kts 202°
2026-04-27 16:31 60.35929 22.12319 4265 ft 234 kts 191°
2026-04-27 16:32 60.32721 22.11315 5018 ft 243 kts 192°
2026-04-27 16:32 60.31149 22.10046 5014 ft 248 kts 224°
2026-04-27 16:33 60.29203 22.04379 5025 ft 250 kts 248°
2026-04-27 16:33 60.28342 22.01304 5025 ft 253 kts 246°
2026-04-27 16:33 60.27279 21.98476 5025 ft 260 kts 236°
2026-04-27 16:33 60.26067 21.95749 5029 ft 262 kts 234°
2026-04-27 16:34 60.24833 21.93033 5033 ft 264 kts 234°
2026-04-27 16:34 60.23592 21.90310 5041 ft 264 kts 234°
2026-04-27 16:34 60.22343 21.87570 5038 ft 265 kts 234°
2026-04-27 16:34 60.21094 21.84834 5040 ft 266 kts 234°
2026-04-27 16:35 60.19837 21.82093 5048 ft 265 kts 234°
2026-04-27 16:35 60.18615 21.79462 5041 ft 251 kts 234°
2026-04-27 16:35 60.16294 21.74531 5040 ft 237 kts 234°
2026-04-27 16:36 60.15164 21.72144 5047 ft 234 kts 234°
2026-04-27 16:36 60.14040 21.69788 5040 ft 233 kts 233°
2026-04-27 16:36 60.12901 21.67478 4984 ft 233 kts 232°
2026-04-27 16:36 60.11715 21.65230 4907 ft 236 kts 229°
2026-04-27 16:37 60.10445 21.63124 4857 ft 238 kts 223°
2026-04-27 16:37 60.09048 21.61361 4796 ft 243 kts 213°
2026-04-27 16:37 60.07454 21.60150 4689 ft 247 kts 198°
2026-04-27 16:37 60.05965 21.58683 4614 ft 234 kts 225°
2026-04-27 16:38 60.04752 21.56548 4582 ft 231 kts 230°
2026-04-27 16:38 60.03624 21.54464 5007 ft 211 kts 231°
2026-04-27 16:38 60.02530 21.52477 5059 ft 215 kts 231°
2026-04-27 16:38 60.01416 21.50439 5060 ft 220 kts 231°
2026-04-27 16:39 60.00324 21.48298 5060 ft 219 kts 236°
2026-04-27 16:39 59.99309 21.46012 5059 ft 220 kts 237°
2026-04-27 16:39 59.98307 21.43692 5060 ft 220 kts 239°
2026-04-27 16:39 59.97419 21.41239 5057 ft 217 kts 245°
2026-04-27 16:40 59.96600 21.38713 5065 ft 217 kts 246°
2026-04-27 16:40 59.95786 21.36175 5068 ft 217 kts 246°
2026-04-27 16:40 59.94970 21.33629 5065 ft 218 kts 246°
2026-04-27 16:40 59.94153 21.31084 5064 ft 218 kts 246°
2026-04-27 16:41 59.93335 21.28536 5070 ft 218 kts 246°
2026-04-27 16:41 59.92516 21.25994 5072 ft 218 kts 246°
2026-04-27 16:41 59.91698 21.23458 5069 ft 217 kts 246°
2026-04-27 16:41 59.90889 21.20920 5068 ft 215 kts 249°
2026-04-27 16:42 59.90181 21.18310 5075 ft 214 kts 252°
2026-04-27 16:42 59.89505 21.15675 5075 ft 214 kts 252°
2026-04-27 16:42 59.88829 21.13037 5076 ft 214 kts 252°
2026-04-27 16:42 59.88153 21.10400 5072 ft 214 kts 252°
2026-04-27 16:43 59.87478 21.07760 5076 ft 214 kts 252°
2026-04-27 16:43 59.86803 21.05131 5080 ft 214 kts 252°
2026-04-27 16:43 59.86128 21.02496 5082 ft 213 kts 252°
2026-04-27 16:43 59.85458 20.99869 5083 ft 212 kts 253°
2026-04-27 16:44 59.84904 20.97226 5085 ft 209 kts 259°
2026-04-27 16:44 59.84398 20.94521 5083 ft 209 kts 259°
2026-04-27 16:44 59.83897 20.91806 5081 ft 208 kts 260°
2026-04-27 16:44 59.83805 20.89129 5081 ft 187 kts 295°
2026-04-27 16:45 59.84378 20.86899 5092 ft 180 kts 308°
2026-04-27 16:45 59.85050 20.84803 5094 ft 180 kts 309°
2026-04-27 16:45 59.85732 20.82711 5097 ft 180 kts 309°
2026-04-27 16:45 59.86416 20.80615 5093 ft 181 kts 309°
2026-04-27 16:46 59.87105 20.78510 5094 ft 181 kts 309°
2026-04-27 16:46 59.87879 20.76601 5094 ft 174 kts 326°
2026-04-27 16:46 59.88948 20.75581 5097 ft 171 kts 346°
2026-04-27 16:46 59.90118 20.75117 5098 ft 172 kts 349°
2026-04-27 16:47 59.91250 20.74432 5109 ft 173 kts 327°
2026-04-27 16:47 59.91854 20.72318 5114 ft 191 kts 285°
2026-04-27 16:47 59.91491 20.69659 5113 ft 215 kts 243°
2026-04-27 16:47 59.90226 20.67894 5105 ft 235 kts 201°
2026-04-27 16:48 59.88591 20.67990 5114 ft 240 kts 161°
2026-04-27 16:48 59.87027 20.69119 5109 ft 239 kts 163°
2026-04-27 16:48 59.85396 20.69515 5098 ft 234 kts 184°
2026-04-27 16:49 59.83555 20.67802 5092 ft 217 kts 238°
2026-04-27 16:49 59.83066 20.65662 5094 ft 200 kts 268°
2026-04-27 16:49 59.82915 20.62950 5099 ft 197 kts 275°
2026-04-27 16:49 59.82826 20.60228 5102 ft 198 kts 275°
2026-04-27 16:50 59.82739 20.57493 5106 ft 198 kts 275°
2026-04-27 16:50 59.82775 20.54818 5098 ft 187 kts 293°
2026-04-27 16:50 59.83353 20.52616 5101 ft 176 kts 319°
2026-04-27 16:50 59.84446 20.51712 5103 ft 174 kts 354°
2026-04-27 16:51 59.85632 20.52257 5113 ft 183 kts 24°
2026-04-27 16:51 59.86534 20.54133 5116 ft 193 kts 46°
2026-04-27 16:51 59.87283 20.56382 5113 ft 196 kts 48°
2026-04-27 16:51 59.88028 20.58650 5113 ft 196 kts 48°
2026-04-27 16:52 59.88788 20.60908 5112 ft 196 kts 47°
2026-04-27 16:52 59.89551 20.63160 5109 ft 196 kts 47°
2026-04-27 16:52 59.90313 20.65417 5110 ft 197 kts 47°
2026-04-27 16:52 59.91075 20.67680 5108 ft 196 kts 47°
2026-04-27 16:53 59.91578 20.69175 5108 ft 196 kts 47°